createdAt,value
2017-09-13T00:00:51.541Z,0
2017-09-13T00:01:50.883Z,0
2017-09-13T00:02:51.199Z,0
2017-09-13T00:03:51.507Z,0
2017-09-13T00:04:51.812Z,0
2017-09-13T00:05:51.481Z,0
2017-09-13T00:06:51.139Z,0
2017-09-13T00:07:51.118Z,0
2017-09-13T00:08:51.431Z,0
2017-09-13T00:09:51.747Z,0
2017-09-13T00:10:51.403Z,0
2017-09-13T00:11:50.745Z,0
2017-09-13T00:12:51.052Z,0
2017-09-13T00:13:51.364Z,0
2017-09-13T00:14:50.697Z,0
2017-09-13T00:15:50.689Z,0
2017-09-13T00:16:51.645Z,0
2017-09-13T00:17:50.978Z,0
2017-09-13T00:18:50.963Z,0
2017-09-13T00:19:50.953Z,0
2017-09-13T00:20:51.260Z,0
2017-09-13T00:21:50.919Z,0
2017-09-13T00:22:50.945Z,0
2017-09-13T00:23:51.211Z,0
2017-09-13T00:24:50.889Z,0
2017-09-13T00:25:51.185Z,0
2017-09-13T00:26:51.166Z,0
2017-09-13T00:27:50.837Z,0
2017-09-13T00:28:51.175Z,0
2017-09-13T00:29:51.443Z,0
2017-09-13T00:30:51.112Z,0
2017-09-13T00:31:50.786Z,0
2017-09-13T00:32:50.444Z,0
2017-09-13T00:33:50.430Z,0
2017-09-13T00:34:51.056Z,0
2017-09-13T00:35:51.053Z,0
2017-09-13T00:36:51.036Z,0
2017-09-13T00:37:50.692Z,0
2017-09-13T00:38:50.705Z,0
2017-09-13T00:39:50.665Z,0
2017-09-13T00:40:50.974Z,0
2017-09-13T00:41:50.642Z,0
2017-09-13T00:42:50.992Z,0
2017-09-13T00:43:50.621Z,0
2017-09-13T00:44:50.611Z,0
2017-09-13T00:45:51.256Z,0
2017-09-13T00:46:50.247Z,0
2017-09-13T00:47:50.566Z,0
2017-09-13T00:48:50.872Z,0
2017-09-13T00:49:50.846Z,0
2017-09-13T00:50:50.528Z,0
2017-09-13T00:51:50.487Z,0
2017-09-13T00:52:50.493Z,0
2017-09-13T00:53:50.784Z,0
2017-09-13T00:54:50.443Z,0
2017-09-13T00:55:50.440Z,0
2017-09-13T00:56:50.416Z,0
2017-09-13T00:57:50.086Z,0
2017-09-13T00:58:50.392Z,0
2017-09-13T00:59:50.370Z,0
2017-09-13T01:00:50.369Z,0
2017-09-13T01:01:50.358Z,0
2017-09-13T01:02:50.654Z,0
2017-09-13T01:03:50.643Z,0
2017-09-13T01:04:50.310Z,0
2017-09-13T01:05:49.969Z,0
2017-09-13T01:06:49.960Z,0
2017-09-13T01:07:50.263Z,0
2017-09-13T01:08:49.930Z,0
2017-09-13T01:09:50.237Z,0
2017-09-13T01:10:50.226Z,0
2017-09-13T01:11:49.881Z,0
2017-09-13T01:12:49.867Z,0
2017-09-13T01:13:50.515Z,0
2017-09-13T01:14:50.486Z,0
2017-09-13T01:15:50.148Z,0
2017-09-13T01:16:50.144Z,0
2017-09-13T01:17:49.797Z,0
2017-09-13T01:18:49.788Z,0
2017-09-13T01:19:50.100Z,0
2017-09-13T01:20:49.764Z,0
2017-09-13T01:21:50.387Z,0
2017-09-13T01:22:50.058Z,0
2017-09-13T01:23:50.360Z,0
2017-09-13T01:24:50.030Z,0
2017-09-13T01:25:50.017Z,0
2017-09-13T01:26:50.311Z,0
2017-09-13T01:27:50.303Z,0
2017-09-13T01:28:49.972Z,0
2017-09-13T01:29:49.684Z,0
2017-09-13T01:30:49.947Z,0
2017-09-13T01:31:50.258Z,0
2017-09-13T01:32:49.586Z,0
2017-09-13T01:33:49.577Z,0
2017-09-13T01:34:49.889Z,0
2017-09-13T01:35:50.533Z,0
2017-09-13T01:36:50.174Z,0
2017-09-13T01:37:50.478Z,0
2017-09-13T01:38:50.558Z,0
2017-09-13T01:39:50.460Z,0
2017-09-13T01:40:49.798Z,0
2017-09-13T01:41:50.113Z,0
2017-09-13T01:42:49.775Z,0
2017-09-13T01:43:49.123Z,0
2017-09-13T01:44:49.431Z,0
2017-09-13T01:45:50.377Z,0
2017-09-13T01:46:49.723Z,0
2017-09-13T01:47:49.709Z,0
2017-09-13T01:48:50.021Z,0
2017-09-13T01:49:49.688Z,0
2017-09-13T01:50:49.988Z,0
2017-09-13T01:51:49.969Z,0
2017-09-13T01:52:49.312Z,0
2017-09-13T01:53:49.947Z,0
2017-09-13T01:54:50.251Z,0
2017-09-13T01:55:49.598Z,0
2017-09-13T01:56:49.917Z,0
2017-09-13T01:57:49.241Z,0
2017-09-13T01:58:49.544Z,0
2017-09-13T01:59:49.863Z,0
2017-09-13T02:00:49.222Z,0
2017-09-13T02:01:49.510Z,0
2017-09-13T02:02:49.817Z,0
2017-09-13T02:03:50.180Z,0
2017-09-13T02:04:48.826Z,0
2017-09-13T02:05:50.098Z,0
2017-09-13T02:06:49.759Z,0
2017-09-13T02:07:49.422Z,0
2017-09-13T02:08:49.734Z,0
2017-09-13T02:09:49.742Z,0
2017-09-13T02:10:49.057Z,0
2017-09-13T02:11:49.685Z,0
2017-09-13T02:12:49.668Z,0
2017-09-13T02:13:49.658Z,0
2017-09-13T02:14:49.649Z,0
2017-09-13T02:15:49.662Z,0
2017-09-13T02:16:49.633Z,0
2017-09-13T02:17:49.277Z,0
2017-09-13T02:18:49.264Z,0
2017-09-13T02:19:49.250Z,0
2017-09-13T02:20:49.236Z,0
2017-09-13T02:21:49.563Z,0
2017-09-13T02:22:49.553Z,0
2017-09-13T02:23:49.528Z,0
2017-09-13T02:24:49.183Z,0
2017-09-13T02:25:49.816Z,0
2017-09-13T02:26:49.154Z,0
2017-09-13T02:27:49.135Z,0
2017-09-13T02:28:49.441Z,0
2017-09-13T02:29:49.448Z,0
2017-09-13T02:30:49.421Z,0
2017-09-13T02:31:49.083Z,0
2017-09-13T02:32:48.742Z,0
2017-09-13T02:33:49.080Z,0
2017-09-13T02:34:49.040Z,0
2017-09-13T02:35:49.663Z,0
2017-09-13T02:36:49.327Z,0
2017-09-13T02:37:49.307Z,0
2017-09-13T02:38:48.654Z,0
2017-09-13T02:39:48.988Z,0
2017-09-13T02:40:49.267Z,0
2017-09-13T02:41:48.613Z,0
2017-09-13T02:42:48.614Z,0
2017-09-13T02:43:48.904Z,0
2017-09-13T02:44:48.568Z,0
2017-09-13T02:45:48.871Z,0
2017-09-13T02:46:49.189Z,0
2017-09-13T02:47:48.877Z,0
2017-09-13T02:48:48.847Z,0
2017-09-13T02:49:49.143Z,0
2017-09-13T02:50:48.803Z,0
2017-09-13T02:51:48.461Z,0
2017-09-13T02:52:48.781Z,0
2017-09-13T02:53:49.400Z,0
2017-09-13T02:54:48.436Z,0
2017-09-13T02:55:48.408Z,0
2017-09-13T02:56:49.041Z,0
2017-09-13T02:57:49.355Z,0
2017-09-13T02:58:49.006Z,0
2017-09-13T02:59:48.994Z,0
2017-09-13T03:00:48.652Z,0
2017-09-13T03:01:48.949Z,0
2017-09-13T03:02:48.934Z,0
2017-09-13T03:03:48.920Z,0
2017-09-13T03:04:48.925Z,0
2017-09-13T03:05:49.037Z,0
2017-09-13T03:06:48.232Z,0
2017-09-13T03:07:48.542Z,0
2017-09-13T03:08:48.853Z,0
2017-09-13T03:09:48.514Z,0
2017-09-13T03:10:48.823Z,0
2017-09-13T03:11:49.133Z,0
2017-09-13T03:12:48.143Z,0
2017-09-13T03:13:48.140Z,0
2017-09-13T03:14:48.762Z,0
2017-09-13T03:15:48.578Z,0
2017-09-13T03:16:48.405Z,0
2017-09-13T03:17:48.394Z,0
2017-09-13T03:18:48.371Z,0
2017-09-13T03:19:47.721Z,0
2017-09-13T03:20:48.674Z,0
2017-09-13T03:21:48.320Z,0
2017-09-13T03:22:48.637Z,0
2017-09-13T03:23:48.612Z,0
2017-09-13T03:24:47.639Z,0
2017-09-13T03:25:47.938Z,0
2017-09-13T03:26:48.249Z,0
2017-09-13T03:27:48.239Z,0
2017-09-13T03:28:48.252Z,0
2017-09-13T03:29:48.214Z,0
2017-09-13T03:30:48.842Z,0
2017-09-13T03:31:47.920Z,0
2017-09-13T03:32:47.840Z,0
2017-09-13T03:33:48.150Z,0
2017-09-13T03:34:47.807Z,0
2017-09-13T03:35:48.111Z,0
2017-09-13T03:36:48.420Z,0
2017-09-13T03:37:48.077Z,0
2017-09-13T03:38:48.097Z,0
2017-09-13T03:39:48.254Z,0
2017-09-13T03:40:48.044Z,0
2017-09-13T03:41:47.692Z,0
2017-09-13T03:42:48.650Z,0
2017-09-13T03:43:48.631Z,0
2017-09-13T03:44:48.300Z,0
2017-09-13T03:45:48.277Z,0
2017-09-13T03:46:47.939Z,0
2017-09-13T03:47:47.278Z,0
2017-09-13T03:48:47.912Z,0
2017-09-13T03:49:47.570Z,0
2017-09-13T03:50:48.202Z,0
2017-09-13T03:51:48.212Z,0
2017-09-13T03:52:47.862Z,0
2017-09-13T03:53:47.520Z,0
2017-09-13T03:54:47.826Z,0
2017-09-13T03:55:48.141Z,0
2017-09-13T03:56:48.121Z,0
2017-09-13T03:57:47.776Z,0
2017-09-13T03:58:48.086Z,0
2017-09-13T03:59:48.073Z,0
2017-09-13T04:00:48.046Z,0
2017-09-13T04:01:47.700Z,0
2017-09-13T04:02:48.012Z,0
2017-09-13T04:03:48.004Z,0
2017-09-13T04:04:47.661Z,0
2017-09-13T04:05:47.976Z,0
2017-09-13T04:06:48.278Z,0
2017-09-13T04:07:47.621Z,0
2017-09-13T04:08:47.599Z,0
2017-09-13T04:09:47.265Z,0
2017-09-13T04:10:47.567Z,0
2017-09-13T04:11:47.553Z,0
2017-09-13T04:12:47.217Z,0
2017-09-13T04:13:47.845Z,0
2017-09-13T04:14:48.146Z,0
2017-09-13T04:15:47.175Z,0
2017-09-13T04:16:47.476Z,0
2017-09-13T04:17:47.135Z,0
2017-09-13T04:18:47.121Z,0
2017-09-13T04:19:47.435Z,0
2017-09-13T04:20:47.096Z,0
2017-09-13T04:21:47.734Z,0
2017-09-13T04:22:47.058Z,0
2017-09-13T04:23:47.372Z,0
2017-09-13T04:24:47.703Z,0
2017-09-13T04:25:47.654Z,0
2017-09-13T04:26:47.320Z,0
2017-09-13T04:27:47.622Z,0
2017-09-13T04:28:46.983Z,0
2017-09-13T04:29:47.593Z,0
2017-09-13T04:30:47.255Z,0
2017-09-13T04:31:47.561Z,0
2017-09-13T04:32:46.903Z,0
2017-09-13T04:33:47.213Z,0
2017-09-13T04:34:47.192Z,0
2017-09-13T04:35:47.182Z,0
2017-09-13T04:36:47.159Z,0
2017-09-13T04:37:46.828Z,0
2017-09-13T04:38:46.811Z,0
2017-09-13T04:39:47.116Z,0
2017-09-13T04:40:47.425Z,0
2017-09-13T04:41:47.411Z,0
2017-09-13T04:42:47.090Z,0
2017-09-13T04:43:47.381Z,0
2017-09-13T04:44:47.035Z,0
2017-09-13T04:45:47.040Z,0
2017-09-13T04:46:47.328Z,0
2017-09-13T04:47:46.673Z,0
2017-09-13T04:48:47.299Z,0
2017-09-13T04:49:47.280Z,0
2017-09-13T04:50:47.588Z,0
2017-09-13T04:51:46.611Z,0
2017-09-13T04:52:46.916Z,0
2017-09-13T04:53:47.310Z,0
2017-09-13T04:54:46.887Z,0
2017-09-13T04:55:46.889Z,0
2017-09-13T04:56:46.538Z,0
2017-09-13T04:57:46.522Z,0
2017-09-13T04:58:46.825Z,0
2017-09-13T04:59:47.125Z,0
2017-09-13T05:00:47.119Z,0
2017-09-13T05:01:46.452Z,0
2017-09-13T05:02:46.436Z,0
2017-09-13T05:03:46.735Z,0
2017-09-13T05:04:46.087Z,0
2017-09-13T05:05:47.026Z,0
2017-09-13T05:06:46.696Z,0
2017-09-13T05:07:46.356Z,0
2017-09-13T05:08:46.659Z,0
2017-09-13T05:09:46.971Z,0
2017-09-13T05:10:46.638Z,0
2017-09-13T05:11:46.614Z,0
2017-09-13T05:12:46.279Z,0
2017-09-13T05:13:46.263Z,0
2017-09-13T05:14:46.887Z,0
2017-09-13T05:15:45.907Z,0
2017-09-13T05:16:46.856Z,0
2017-09-13T05:17:46.198Z,0
2017-09-13T05:18:46.501Z,0
2017-09-13T05:19:46.165Z,0
2017-09-13T05:20:46.154Z,0
2017-09-13T05:21:46.463Z,0
2017-09-13T05:22:46.121Z,0
2017-09-13T05:23:46.430Z,5
2017-09-13T05:24:46.737Z,5
2017-09-13T05:25:46.398Z,5
2017-09-13T05:26:46.385Z,0
2017-09-13T05:27:46.043Z,0
2017-09-13T05:28:46.354Z,5
2017-09-13T05:29:46.014Z,5
2017-09-13T05:30:45.999Z,10
2017-09-13T05:31:45.977Z,5
2017-09-13T05:32:45.976Z,5
2017-09-13T05:33:46.308Z,10
2017-09-13T05:34:46.260Z,10
2017-09-13T05:35:46.234Z,10
2017-09-13T05:36:45.932Z,10
2017-09-13T05:37:45.887Z,5
2017-09-13T05:38:45.878Z,5
2017-09-13T05:39:46.379Z,5
2017-09-13T05:40:45.522Z,5
2017-09-13T05:41:46.146Z,5
2017-09-13T05:42:46.461Z,5
2017-09-13T05:43:46.169Z,10
2017-09-13T05:44:45.479Z,10
2017-09-13T05:45:46.104Z,20
2017-09-13T05:46:46.726Z,20
2017-09-13T05:47:46.073Z,10
2017-09-13T05:48:46.045Z,10
2017-09-13T05:49:46.023Z,10
2017-09-13T05:50:46.662Z,10
2017-09-13T05:51:46.027Z,10
2017-09-13T05:52:46.313Z,5
2017-09-13T05:53:46.298Z,5
2017-09-13T05:54:45.953Z,10
2017-09-13T05:55:45.622Z,15
2017-09-13T05:56:45.280Z,15
2017-09-13T05:57:45.909Z,20
2017-09-13T05:58:45.913Z,20
2017-09-13T05:59:46.204Z,15
2017-09-13T06:00:45.862Z,15
2017-09-13T06:01:45.522Z,15
2017-09-13T06:02:45.506Z,15
2017-09-13T06:03:45.830Z,25
2017-09-13T06:04:46.117Z,25
2017-09-13T06:05:46.427Z,20
2017-09-13T06:06:46.415Z,15
2017-09-13T06:07:45.753Z,5
2017-09-13T06:08:46.067Z,5
2017-09-13T06:09:45.398Z,5
2017-09-13T06:10:45.707Z,5
2017-09-13T06:11:45.688Z,5
2017-09-13T06:12:46.009Z,10
2017-09-13T06:13:45.663Z,20
2017-09-13T06:14:45.649Z,30
2017-09-13T06:15:45.948Z,35
2017-09-13T06:16:45.287Z,30
2017-09-13T06:17:44.950Z,40
2017-09-13T06:18:45.578Z,20
2017-09-13T06:19:45.567Z,10
2017-09-13T06:20:46.186Z,5
2017-09-13T06:21:46.184Z,10
2017-09-13T06:22:44.888Z,10
2017-09-13T06:23:45.564Z,10
2017-09-13T06:24:45.819Z,10
2017-09-13T06:25:46.134Z,15
2017-09-13T06:26:45.456Z,15
2017-09-13T06:27:45.463Z,25
2017-09-13T06:28:45.641Z,20
2017-09-13T06:29:45.420Z,20
2017-09-13T06:30:45.398Z,30
2017-09-13T06:31:45.058Z,45
2017-09-13T06:32:45.058Z,45
2017-09-13T06:33:45.353Z,70
2017-09-13T06:34:45.655Z,70
2017-09-13T06:35:45.663Z,50
2017-09-13T06:36:45.972Z,50
2017-09-13T06:37:45.612Z,45
2017-09-13T06:38:45.273Z,30
2017-09-13T06:39:45.904Z,30
2017-09-13T06:40:45.575Z,40
2017-09-13T06:41:45.564Z,50
2017-09-13T06:42:44.892Z,50
2017-09-13T06:43:44.564Z,60
2017-09-13T06:44:45.826Z,65
2017-09-13T06:45:45.498Z,60
2017-09-13T06:46:45.164Z,55
2017-09-13T06:47:45.464Z,65
2017-09-13T06:48:45.449Z,45
2017-09-13T06:49:45.432Z,35
2017-09-13T06:50:45.099Z,45
2017-09-13T06:51:45.773Z,35
2017-09-13T06:52:45.389Z,50
2017-09-13T06:53:44.418Z,90
2017-09-13T06:54:45.354Z,75
2017-09-13T06:55:45.348Z,75
2017-09-13T06:56:45.008Z,90
2017-09-13T06:57:44.999Z,85
2017-09-13T06:58:45.301Z,80
2017-09-13T06:59:44.988Z,75
2017-09-13T07:00:45.273Z,100
2017-09-13T07:01:44.938Z,100
2017-09-13T07:02:45.250Z,80
2017-09-13T07:03:44.914Z,90
2017-09-13T07:04:44.892Z,90
2017-09-13T07:05:45.197Z,110
2017-09-13T07:06:45.190Z,90
2017-09-13T07:07:44.526Z,95
2017-09-13T07:08:44.514Z,75
2017-09-13T07:09:45.461Z,80
2017-09-13T07:10:44.813Z,85
2017-09-13T07:11:44.484Z,95
2017-09-13T07:12:44.466Z,80
2017-09-13T07:13:44.766Z,80
2017-09-13T07:14:44.753Z,85
2017-09-13T07:15:44.740Z,85
2017-09-13T07:16:45.051Z,90
2017-09-13T07:17:44.720Z,100
2017-09-13T07:18:44.706Z,85
2017-09-13T07:19:44.710Z,80
2017-09-13T07:20:44.676Z,90
2017-09-13T07:21:44.656Z,90
2017-09-13T07:22:44.326Z,95
2017-09-13T07:23:44.978Z,85
2017-09-13T07:24:44.938Z,95
2017-09-13T07:25:44.640Z,100
2017-09-13T07:26:44.588Z,115
2017-09-13T07:27:45.223Z,145
2017-09-13T07:28:44.893Z,165
2017-09-13T07:29:44.348Z,160
2017-09-13T07:30:44.566Z,160
2017-09-13T07:31:45.154Z,155
2017-09-13T07:32:44.504Z,155
2017-09-13T07:33:44.486Z,125
2017-09-13T07:34:45.115Z,115
2017-09-13T07:35:44.474Z,90
2017-09-13T07:36:44.140Z,90
2017-09-13T07:37:44.495Z,130
2017-09-13T07:38:44.749Z,185
2017-09-13T07:39:44.623Z,155
2017-09-13T07:40:43.754Z,110
2017-09-13T07:41:44.061Z,100
2017-09-13T07:42:44.419Z,140
2017-09-13T07:43:44.699Z,215
2017-09-13T07:44:44.065Z,235
2017-09-13T07:45:44.355Z,200
2017-09-13T07:46:44.327Z,185
2017-09-13T07:47:44.308Z,190
2017-09-13T07:48:43.973Z,205
2017-09-13T07:49:44.282Z,175
2017-09-13T07:50:43.942Z,145
2017-09-13T07:51:43.939Z,145
2017-09-13T07:52:44.563Z,140
2017-09-13T07:53:44.732Z,125
2017-09-13T07:54:44.863Z,155
2017-09-13T07:55:44.587Z,175
2017-09-13T07:56:44.213Z,175
2017-09-13T07:57:44.522Z,195
2017-09-13T07:58:44.191Z,175
2017-09-13T07:59:44.486Z,195
2017-09-13T08:00:44.141Z,195
2017-09-13T08:01:44.164Z,210
2017-09-13T08:02:44.122Z,205
2017-09-13T08:03:44.431Z,175
2017-09-13T08:04:44.102Z,180
2017-09-13T08:05:44.087Z,175
2017-09-13T08:06:44.712Z,165
2017-09-13T08:07:44.379Z,125
2017-09-13T08:08:44.375Z,85
2017-09-13T08:09:44.025Z,145
2017-09-13T08:10:44.353Z,160
2017-09-13T08:11:43.678Z,195
2017-09-13T08:12:44.002Z,225
2017-09-13T08:13:44.303Z,265
2017-09-13T08:14:43.974Z,250
2017-09-13T08:15:43.957Z,190
2017-09-13T08:16:44.280Z,185
2017-09-13T08:17:43.933Z,180
2017-09-13T08:18:44.250Z,190
2017-09-13T08:19:43.915Z,180
2017-09-13T08:20:44.238Z,145
2017-09-13T08:21:44.223Z,145
2017-09-13T08:22:44.517Z,155
2017-09-13T08:23:43.542Z,165
2017-09-13T08:24:44.188Z,175
2017-09-13T08:25:44.156Z,190
2017-09-13T08:26:43.828Z,200
2017-09-13T08:27:43.167Z,225
2017-09-13T08:28:44.126Z,260
2017-09-13T08:29:43.783Z,250
2017-09-13T08:30:43.782Z,220
2017-09-13T08:31:43.119Z,220
2017-09-13T08:32:43.756Z,235
2017-09-13T08:33:43.740Z,195
2017-09-13T08:34:43.737Z,190
2017-09-13T08:35:44.038Z,220
2017-09-13T08:36:44.030Z,155
2017-09-13T08:37:43.690Z,140
2017-09-13T08:38:43.677Z,150
2017-09-13T08:39:43.354Z,140
2017-09-13T08:40:43.981Z,125
2017-09-13T08:41:43.651Z,130
2017-09-13T08:42:43.628Z,180
2017-09-13T08:43:43.639Z,150
2017-09-13T08:44:43.937Z,150
2017-09-13T08:45:43.925Z,130
2017-09-13T08:46:43.953Z,130
2017-09-13T08:47:43.905Z,155
2017-09-13T08:48:43.922Z,165
2017-09-13T08:49:44.203Z,185
2017-09-13T08:50:43.874Z,110
2017-09-13T08:51:44.204Z,145
2017-09-13T08:52:43.529Z,155
2017-09-13T08:53:43.534Z,185
2017-09-13T08:54:43.508Z,185
2017-09-13T08:55:42.845Z,140
2017-09-13T08:56:43.149Z,145
2017-09-13T08:57:44.123Z,180
2017-09-13T08:58:43.125Z,135
2017-09-13T08:59:43.776Z,155
2017-09-13T09:00:44.080Z,130
2017-09-13T09:01:43.739Z,140
2017-09-13T09:02:44.041Z,130
2017-09-13T09:03:43.715Z,130
2017-09-13T09:04:43.401Z,130
2017-09-13T09:05:43.373Z,130
2017-09-13T09:06:58.754Z,145
2017-09-13T09:07:44.495Z,140
2017-09-13T09:08:44.125Z,130
2017-09-13T09:09:43.698Z,130
2017-09-13T09:10:43.966Z,145
2017-09-13T09:11:43.994Z,160
2017-09-13T09:12:43.352Z,145
2017-09-13T09:13:43.660Z,170
2017-09-13T09:14:58.506Z,170
2017-09-13T09:15:58.375Z,230
2017-09-13T09:16:43.475Z,185
2017-09-13T09:17:43.550Z,180
2017-09-13T09:18:42.921Z,180
2017-09-13T09:19:43.205Z,160
2017-09-13T09:20:43.210Z,130
2017-09-13T09:21:43.501Z,365
2017-09-13T09:22:43.493Z,130
2017-09-13T09:23:43.168Z,165
2017-09-13T09:24:43.476Z,135
2017-09-13T09:25:42.824Z,145
2017-09-13T09:26:43.125Z,155
2017-09-13T09:27:43.115Z,195
2017-09-13T09:28:43.107Z,165
2017-09-13T09:29:42.783Z,175
2017-09-13T09:30:42.802Z,175
2017-09-13T09:31:42.751Z,165
2017-09-13T09:32:43.122Z,115
2017-09-13T09:33:42.732Z,165
2017-09-13T09:34:42.723Z,205
2017-09-13T09:35:42.709Z,160
2017-09-13T09:36:42.694Z,135
2017-09-13T09:37:43.018Z,145
2017-09-13T09:38:43.324Z,80
2017-09-13T09:39:43.509Z,95
2017-09-13T09:40:42.979Z,175
2017-09-13T09:41:43.298Z,235
2017-09-13T09:42:43.473Z,260
2017-09-13T09:43:42.935Z,290
2017-09-13T09:44:42.941Z,330
2017-09-13T09:45:43.253Z,190
2017-09-13T09:46:42.903Z,215
2017-09-13T09:47:42.576Z,250
2017-09-13T09:48:43.211Z,170
2017-09-13T09:49:43.516Z,120
2017-09-13T09:50:42.864Z,140
2017-09-13T09:51:43.169Z,115
2017-09-13T09:52:43.162Z,105
2017-09-13T09:53:43.154Z,95
2017-09-13T09:54:43.467Z,95
2017-09-13T09:55:43.449Z,180
2017-09-13T09:56:43.118Z,275
2017-09-13T09:57:42.788Z,240
2017-09-13T09:58:42.464Z,235
2017-09-13T09:59:43.102Z,345
2017-09-13T10:00:42.435Z,315
2017-09-13T10:01:42.743Z,245
2017-09-13T10:02:42.418Z,170
2017-09-13T10:03:43.041Z,210
2017-09-13T10:04:43.044Z,285
2017-09-13T10:05:43.031Z,305
2017-09-13T10:06:42.690Z,240
2017-09-13T10:07:43.004Z,230
2017-09-13T10:08:42.687Z,165
2017-09-13T10:09:42.652Z,165
2017-09-13T10:10:42.648Z,165
2017-09-13T10:11:42.639Z,105
2017-09-13T10:12:42.948Z,80
2017-09-13T10:13:42.297Z,55
2017-09-13T10:14:42.282Z,35
2017-09-13T10:15:42.584Z,50
2017-09-13T10:16:42.894Z,65
2017-09-13T10:17:42.252Z,90
2017-09-13T10:18:42.235Z,115
2017-09-13T10:19:42.219Z,195
2017-09-13T10:20:42.531Z,185
2017-09-13T10:21:42.860Z,270
2017-09-13T10:22:42.841Z,235
2017-09-13T10:23:43.137Z,215
2017-09-13T10:24:42.164Z,180
2017-09-13T10:25:43.120Z,185
2017-09-13T10:26:42.156Z,200
2017-09-13T10:27:42.465Z,235
2017-09-13T10:28:42.121Z,190
2017-09-13T10:29:42.436Z,240
2017-09-13T10:30:42.416Z,220
2017-09-13T10:31:42.089Z,345
2017-09-13T10:32:42.433Z,260
2017-09-13T10:33:42.704Z,230
2017-09-13T10:34:42.047Z,190
2017-09-13T10:35:41.712Z,225
2017-09-13T10:36:42.022Z,705
2017-09-13T10:37:42.033Z,250
2017-09-13T10:38:42.329Z,200
2017-09-13T10:39:42.345Z,455
2017-09-13T10:40:42.625Z,245
2017-09-13T10:41:42.304Z,300
2017-09-13T10:42:42.601Z,335
2017-09-13T10:43:42.946Z,340
2017-09-13T10:44:42.582Z,480
2017-09-13T10:45:41.953Z,435
2017-09-13T10:46:42.232Z,380
2017-09-13T10:47:42.254Z,545
2017-09-13T10:48:42.211Z,260
2017-09-13T10:49:41.893Z,175
2017-09-13T10:50:42.532Z,960
2017-09-13T10:51:42.513Z,490
2017-09-13T10:52:42.497Z,285
2017-09-13T10:53:41.846Z,235
2017-09-13T10:54:42.802Z,455
2017-09-13T10:55:42.146Z,295
2017-09-13T10:56:41.491Z,1260
2017-09-13T10:57:42.126Z,320
2017-09-13T10:58:42.432Z,600
2017-09-13T10:59:42.425Z,325
2017-09-13T11:00:42.090Z,235
2017-09-13T11:01:42.098Z,290
2017-09-13T11:02:42.085Z,1250
2017-09-13T11:03:42.721Z,1390
2017-09-13T11:04:41.736Z,930
2017-09-13T11:05:42.373Z,275
2017-09-13T11:06:42.700Z,1175
2017-09-13T11:07:41.712Z,970
2017-09-13T11:08:42.023Z,655
2017-09-13T11:09:42.029Z,600
2017-09-13T11:10:42.011Z,325
2017-09-13T11:11:41.688Z,1705
2017-09-13T11:12:42.321Z,950
2017-09-13T11:13:41.980Z,610
2017-09-13T11:14:41.979Z,630
2017-09-13T11:15:41.976Z,1285
2017-09-13T11:16:41.976Z,1740
2017-09-13T11:17:42.620Z,450
2017-09-13T11:18:42.603Z,330
2017-09-13T11:19:42.273Z,1155
2017-09-13T11:20:41.310Z,235
2017-09-13T11:21:41.935Z,320
2017-09-13T11:22:42.586Z,230
2017-09-13T11:23:41.930Z,220
2017-09-13T11:24:42.240Z,280
2017-09-13T11:25:41.918Z,855
2017-09-13T11:26:41.906Z,310
2017-09-13T11:27:42.225Z,215
2017-09-13T11:28:42.544Z,235
2017-09-13T11:29:42.554Z,280
2017-09-13T11:30:41.887Z,1670
2017-09-13T11:31:41.877Z,1645
2017-09-13T11:32:41.555Z,630
2017-09-13T11:33:42.187Z,1690
2017-09-13T11:34:42.189Z,1465
2017-09-13T11:35:41.859Z,570
2017-09-13T11:36:41.527Z,465
2017-09-13T11:37:42.186Z,1905
2017-09-13T11:38:41.834Z,440
2017-09-13T11:39:42.030Z,1840
2017-09-13T11:40:41.825Z,1865
2017-09-13T11:41:42.145Z,1745
2017-09-13T11:42:41.811Z,1855
2017-09-13T11:43:41.819Z,1890
2017-09-13T11:44:42.443Z,1955
2017-09-13T11:45:41.802Z,1995
2017-09-13T11:46:41.797Z,1600
2017-09-13T11:47:41.799Z,430
2017-09-13T11:48:42.122Z,1875
2017-09-13T11:49:41.791Z,330
2017-09-13T11:50:41.463Z,280
2017-09-13T11:51:41.466Z,1190
2017-09-13T11:52:42.428Z,1690
2017-09-13T11:53:41.455Z,1460
2017-09-13T11:54:41.459Z,1485
2017-09-13T11:55:41.781Z,365
2017-09-13T11:56:42.102Z,255
2017-09-13T11:57:41.784Z,220
2017-09-13T11:58:42.407Z,1820
2017-09-13T11:59:41.772Z,365
2017-09-13T12:00:41.440Z,1765
2017-09-13T12:01:41.442Z,1850
2017-09-13T12:02:42.086Z,1730
2017-09-13T12:03:41.422Z,1710
2017-09-13T12:04:42.398Z,255
2017-09-13T12:05:42.068Z,520
2017-09-13T12:06:41.417Z,1770
2017-09-13T12:07:41.416Z,195
2017-09-13T12:08:41.414Z,1835
2017-09-13T12:09:42.053Z,1860
2017-09-13T12:10:41.726Z,1850
2017-09-13T12:11:41.405Z,1825
2017-09-13T12:12:42.045Z,1815
2017-09-13T12:13:41.395Z,1825
2017-09-13T12:14:42.037Z,1835
2017-09-13T12:15:41.715Z,1860
2017-09-13T12:16:42.035Z,1860
2017-09-13T12:17:41.393Z,1835
2017-09-13T12:18:41.384Z,1805
2017-09-13T12:19:42.022Z,1740
2017-09-13T12:20:41.384Z,1755
2017-09-13T12:21:41.731Z,1800
2017-09-13T12:22:42.022Z,1805
2017-09-13T12:23:42.063Z,1740
2017-09-13T12:24:42.035Z,1725
2017-09-13T12:25:42.020Z,1700
2017-09-13T12:26:41.410Z,1715
2017-09-13T12:27:42.022Z,1745
2017-09-13T12:28:41.694Z,1785
2017-09-13T12:29:42.046Z,1755
2017-09-13T12:30:41.378Z,1820
2017-09-13T12:31:42.432Z,1815
2017-09-13T12:32:41.693Z,1815
2017-09-13T12:33:41.372Z,1880
2017-09-13T12:34:41.704Z,1845
2017-09-13T12:35:41.374Z,235
2017-09-13T12:36:41.373Z,225
2017-09-13T12:37:41.068Z,485
2017-09-13T12:38:42.348Z,760
2017-09-13T12:39:41.377Z,340
2017-09-13T12:40:42.018Z,1810
2017-09-13T12:41:41.703Z,190
2017-09-13T12:42:41.696Z,185
2017-09-13T12:43:41.381Z,505
2017-09-13T12:44:41.689Z,220
2017-09-13T12:45:41.370Z,160
2017-09-13T12:46:41.389Z,155
2017-09-13T12:47:41.718Z,1385
2017-09-13T12:48:41.360Z,1685
2017-09-13T12:49:41.363Z,1705
2017-09-13T12:50:41.999Z,1710
2017-09-13T12:51:41.666Z,390
2017-09-13T12:52:41.349Z,1725
2017-09-13T12:53:41.665Z,1705
2017-09-13T12:54:41.336Z,1715
2017-09-13T12:55:41.990Z,1750
2017-09-13T12:56:41.655Z,1740
2017-09-13T12:57:41.970Z,280
2017-09-13T12:58:41.328Z,525
2017-09-13T12:59:42.299Z,1760
2017-09-13T13:00:41.656Z,900
2017-09-13T13:01:42.287Z,260
2017-09-13T13:02:41.956Z,1565
2017-09-13T13:03:41.649Z,200
2017-09-13T13:04:41.320Z,310
2017-09-13T13:05:41.950Z,1320
2017-09-13T13:06:41.315Z,1140
2017-09-13T13:07:41.963Z,1490
2017-09-13T13:08:41.308Z,415
2017-09-13T13:09:41.654Z,310
2017-09-13T13:10:41.931Z,245
2017-09-13T13:11:42.262Z,300
2017-09-13T13:12:41.617Z,335
2017-09-13T13:13:41.607Z,1175
2017-09-13T13:14:41.277Z,1330
2017-09-13T13:15:41.910Z,1440
2017-09-13T13:16:41.585Z,1370
2017-09-13T13:17:41.261Z,285
2017-09-13T13:18:40.939Z,295
2017-09-13T13:19:41.452Z,265
2017-09-13T13:20:41.570Z,355
2017-09-13T13:21:41.584Z,1780
2017-09-13T13:22:41.890Z,835
2017-09-13T13:23:41.553Z,490
2017-09-13T13:24:41.872Z,855
2017-09-13T13:25:40.906Z,560
2017-09-13T13:26:41.546Z,515
2017-09-13T13:27:41.226Z,765
2017-09-13T13:28:41.530Z,965
2017-09-13T13:29:41.202Z,1315
2017-09-13T13:30:41.209Z,245
2017-09-13T13:31:41.201Z,1275
2017-09-13T13:32:41.849Z,1620
2017-09-13T13:33:41.208Z,300
2017-09-13T13:34:41.189Z,360
2017-09-13T13:35:41.823Z,330
2017-09-13T13:36:41.827Z,355
2017-09-13T13:37:41.820Z,395
2017-09-13T13:38:41.183Z,540
2017-09-13T13:39:42.016Z,375
2017-09-13T13:40:41.485Z,285
2017-09-13T13:41:41.170Z,245
2017-09-13T13:42:41.478Z,295
2017-09-13T13:43:41.149Z,245
2017-09-13T13:44:41.800Z,200
2017-09-13T13:45:41.478Z,190
2017-09-13T13:46:42.100Z,270
2017-09-13T13:47:41.772Z,290
2017-09-13T13:48:41.121Z,265
2017-09-13T13:49:42.206Z,230
2017-09-13T13:50:41.759Z,215
2017-09-13T13:51:41.107Z,235
2017-09-13T13:52:41.735Z,270
2017-09-13T13:53:41.102Z,290
2017-09-13T13:54:41.404Z,360
2017-09-13T13:55:41.396Z,320
2017-09-13T13:56:41.716Z,210
2017-09-13T13:57:42.038Z,170
2017-09-13T13:58:41.062Z,185
2017-09-13T13:59:41.380Z,415
2017-09-13T14:00:41.685Z,425
2017-09-13T14:01:41.364Z,320
2017-09-13T14:02:41.346Z,225
2017-09-13T14:03:40.698Z,160
2017-09-13T14:04:41.976Z,350
2017-09-13T14:05:41.323Z,260
2017-09-13T14:06:40.995Z,260
2017-09-13T14:07:40.673Z,235
2017-09-13T14:08:41.636Z,330
2017-09-13T14:09:41.298Z,310
2017-09-13T14:10:41.640Z,320